sensor_id;sensor_type;location;lat;lon;timestamp;temperature;humidity
84176;DHT22;74306;40.114;18.304;2023-11-21T00:01:21;13.10;90.20
84176;DHT22;74306;40.114;18.304;2023-11-21T00:03:51;13.10;90.30
84176;DHT22;74306;40.114;18.304;2023-11-21T00:06:22;13.20;90.20
84176;DHT22;74306;40.114;18.304;2023-11-21T00:08:51;13.20;90.40
84176;DHT22;74306;40.114;18.304;2023-11-21T00:11:21;13.20;90.40
84176;DHT22;74306;40.114;18.304;2023-11-21T00:13:51;13.10;90.40
84176;DHT22;74306;40.114;18.304;2023-11-21T00:16:21;13.10;90.40
84176;DHT22;74306;40.114;18.304;2023-11-21T00:18:51;13.20;90.60
84176;DHT22;74306;40.114;18.304;2023-11-21T00:21:20;13.10;90.60
84176;DHT22;74306;40.114;18.304;2023-11-21T00:23:50;13.20;90.80
84176;DHT22;74306;40.114;18.304;2023-11-21T00:26:19;13.20;91.10
84176;DHT22;74306;40.114;18.304;2023-11-21T00:28:59;13.30;91.30
84176;DHT22;74306;40.114;18.304;2023-11-21T00:31:30;13.30;91.20
84176;DHT22;74306;40.114;18.304;2023-11-21T00:33:59;13.30;91.30
84176;DHT22;74306;40.114;18.304;2023-11-21T00:36:28;13.30;91.30
84176;DHT22;74306;40.114;18.304;2023-11-21T00:38:58;13.30;91.50
84176;DHT22;74306;40.114;18.304;2023-11-21T00:41:28;13.40;91.40
84176;DHT22;74306;40.114;18.304;2023-11-21T00:44:00;13.30;91.30
84176;DHT22;74306;40.114;18.304;2023-11-21T00:46:29;13.40;91.40
84176;DHT22;74306;40.114;18.304;2023-11-21T00:48:59;13.40;91.50
84176;DHT22;74306;40.114;18.304;2023-11-21T00:51:28;13.40;91.50
84176;DHT22;74306;40.114;18.304;2023-11-21T00:53:57;13.40;91.60
84176;DHT22;74306;40.114;18.304;2023-11-21T00:56:27;13.40;91.70
84176;DHT22;74306;40.114;18.304;2023-11-21T00:58:58;13.40;91.60
84176;DHT22;74306;40.114;18.304;2023-11-21T01:01:28;13.40;91.70
84176;DHT22;74306;40.114;18.304;2023-11-21T01:03:57;13.40;91.80
84176;DHT22;74306;40.114;18.304;2023-11-21T01:06:26;13.40;91.90
84176;DHT22;74306;40.114;18.304;2023-11-21T01:08:56;13.40;92.00
84176;DHT22;74306;40.114;18.304;2023-11-21T01:11:26;13.40;91.90
84176;DHT22;74306;40.114;18.304;2023-11-21T01:13:55;13.50;92.20
84176;DHT22;74306;40.114;18.304;2023-11-21T01:16:26;13.40;92.00
84176;DHT22;74306;40.114;18.304;2023-11-21T01:18:56;13.40;92.10
84176;DHT22;74306;40.114;18.304;2023-11-21T01:21:27;13.40;92.00
84176;DHT22;74306;40.114;18.304;2023-11-21T01:23:57;13.30;92.10
84176;DHT22;74306;40.114;18.304;2023-11-21T01:26:26;13.30;92.10
84176;DHT22;74306;40.114;18.304;2023-11-21T01:28:56;13.30;92.20
84176;DHT22;74306;40.114;18.304;2023-11-21T01:31:27;13.30;92.30
84176;DHT22;74306;40.114;18.304;2023-11-21T01:33:57;13.30;92.40
84176;DHT22;74306;40.114;18.304;2023-11-21T01:36:30;13.30;92.50
84176;DHT22;74306;40.114;18.304;2023-11-21T01:39:01;13.30;92.50
84176;DHT22;74306;40.114;18.304;2023-11-21T01:41:30;13.30;92.50
84176;DHT22;74306;40.114;18.304;2023-11-21T01:44:00;13.30;92.50
84176;DHT22;74306;40.114;18.304;2023-11-21T01:46:31;13.30;92.60
84176;DHT22;74306;40.114;18.304;2023-11-21T01:49:00;13.30;92.50
84176;DHT22;74306;40.114;18.304;2023-11-21T01:51:30;13.30;92.50
84176;DHT22;74306;40.114;18.304;2023-11-21T01:53:59;13.30;92.60
84176;DHT22;74306;40.114;18.304;2023-11-21T01:56:28;13.30;92.60
84176;DHT22;74306;40.114;18.304;2023-11-21T01:58:59;13.20;92.60
84176;DHT22;74306;40.114;18.304;2023-11-21T02:01:28;13.20;92.60
84176;DHT22;74306;40.114;18.304;2023-11-21T02:03:59;13.20;92.70
84176;DHT22;74306;40.114;18.304;2023-11-21T02:06:29;13.30;92.80
84176;DHT22;74306;40.114;18.304;2023-11-21T02:08:59;13.20;92.80
84176;DHT22;74306;40.114;18.304;2023-11-21T02:11:28;13.20;93.00
84176;DHT22;74306;40.114;18.304;2023-11-21T02:13:59;13.20;92.90
84176;DHT22;74306;40.114;18.304;2023-11-21T02:16:28;13.20;92.90
84176;DHT22;74306;40.114;18.304;2023-11-21T02:19:01;13.20;92.90
84176;DHT22;74306;40.114;18.304;2023-11-21T02:21:33;13.10;93.00
84176;DHT22;74306;40.114;18.304;2023-11-21T02:24:07;13.10;93.00
84176;DHT22;74306;40.114;18.304;2023-11-21T02:26:38;13.10;92.90
84176;DHT22;74306;40.114;18.304;2023-11-21T02:29:07;13.10;92.80
84176;DHT22;74306;40.114;18.304;2023-11-21T02:31:40;13.10;92.80
84176;DHT22;74306;40.114;18.304;2023-11-21T02:34:16;13.00;92.80
84176;DHT22;74306;40.114;18.304;2023-11-21T02:36:46;13.00;92.80
84176;DHT22;74306;40.114;18.304;2023-11-21T02:39:18;13.00;92.80
84176;DHT22;74306;40.114;18.304;2023-11-21T02:41:50;13.00;92.90
84176;DHT22;74306;40.114;18.304;2023-11-21T02:44:20;12.90;92.90
84176;DHT22;74306;40.114;18.304;2023-11-21T02:46:49;12.90;92.80
84176;DHT22;74306;40.114;18.304;2023-11-21T02:49:18;12.90;92.90
84176;DHT22;74306;40.114;18.304;2023-11-21T02:51:48;12.90;92.90
84176;DHT22;74306;40.114;18.304;2023-11-21T02:54:19;12.90;93.00
84176;DHT22;74306;40.114;18.304;2023-11-21T02:56:49;13.00;93.00
84176;DHT22;74306;40.114;18.304;2023-11-21T02:59:19;13.00;93.00
84176;DHT22;74306;40.114;18.304;2023-11-21T03:01:48;12.90;93.00
84176;DHT22;74306;40.114;18.304;2023-11-21T03:04:17;13.00;93.10
84176;DHT22;74306;40.114;18.304;2023-11-21T03:06:48;13.00;93.10
84176;DHT22;74306;40.114;18.304;2023-11-21T03:09:18;13.00;93.20
84176;DHT22;74306;40.114;18.304;2023-11-21T03:11:48;13.10;93.20
84176;DHT22;74306;40.114;18.304;2023-11-21T03:14:17;13.10;93.20
84176;DHT22;74306;40.114;18.304;2023-11-21T03:16:47;13.10;93.10
84176;DHT22;74306;40.114;18.304;2023-11-21T03:19:17;13.10;93.10
84176;DHT22;74306;40.114;18.304;2023-11-21T03:21:47;13.10;93.10
84176;DHT22;74306;40.114;18.304;2023-11-21T03:24:16;13.10;93.10
84176;DHT22;74306;40.114;18.304;2023-11-21T03:26:49;13.00;93.20
84176;DHT22;74306;40.114;18.304;2023-11-21T03:29:18;13.00;93.10
84176;DHT22;74306;40.114;18.304;2023-11-21T03:31:48;13.00;93.00
84176;DHT22;74306;40.114;18.304;2023-11-21T03:34:23;13.00;93.20
84176;DHT22;74306;40.114;18.304;2023-11-21T03:36:55;13.10;93.30
84176;DHT22;74306;40.114;18.304;2023-11-21T03:39:24;13.10;93.20
84176;DHT22;74306;40.114;18.304;2023-11-21T03:41:55;13.00;93.20
84176;DHT22;74306;40.114;18.304;2023-11-21T03:44:24;13.10;93.30
84176;DHT22;74306;40.114;18.304;2023-11-21T03:46:54;13.10;93.30
84176;DHT22;74306;40.114;18.304;2023-11-21T03:49:23;13.20;93.30
84176;DHT22;74306;40.114;18.304;2023-11-21T03:51:52;13.30;93.40
84176;DHT22;74306;40.114;18.304;2023-11-21T03:54:22;13.20;93.30
84176;DHT22;74306;40.114;18.304;2023-11-21T03:56:51;13.20;93.20
84176;DHT22;74306;40.114;18.304;2023-11-21T03:59:22;13.20;93.20
84176;DHT22;74306;40.114;18.304;2023-11-21T04:01:55;13.20;93.30
84176;DHT22;74306;40.114;18.304;2023-11-21T04:04:25;13.10;93.20
84176;DHT22;74306;40.114;18.304;2023-11-21T04:06:54;13.10;93.30
84176;DHT22;74306;40.114;18.304;2023-11-21T04:09:24;13.10;93.30
84176;DHT22;74306;40.114;18.304;2023-11-21T04:11:53;13.10;93.40
84176;DHT22;74306;40.114;18.304;2023-11-21T04:14:25;13.10;93.40
84176;DHT22;74306;40.114;18.304;2023-11-21T04:16:54;13.10;93.40
84176;DHT22;74306;40.114;18.304;2023-11-21T04:19:23;13.00;93.40
84176;DHT22;74306;40.114;18.304;2023-11-21T04:21:54;13.00;93.40
84176;DHT22;74306;40.114;18.304;2023-11-21T04:24:23;13.00;93.30
84176;DHT22;74306;40.114;18.304;2023-11-21T04:26:53;13.00;93.50
84176;DHT22;74306;40.114;18.304;2023-11-21T04:29:23;13.00;93.50
84176;DHT22;74306;40.114;18.304;2023-11-21T04:31:53;12.90;93.40
84176;DHT22;74306;40.114;18.304;2023-11-21T04:34:22;13.00;93.40
84176;DHT22;74306;40.114;18.304;2023-11-21T04:36:51;12.90;93.40
84176;DHT22;74306;40.114;18.304;2023-11-21T04:39:21;12.90;93.40
84176;DHT22;74306;40.114;18.304;2023-11-21T04:41:51;12.90;93.40
84176;DHT22;74306;40.114;18.304;2023-11-21T04:44:20;12.90;93.40
84176;DHT22;74306;40.114;18.304;2023-11-21T04:46:51;12.90;93.40
84176;DHT22;74306;40.114;18.304;2023-11-21T04:49:20;12.90;93.60
84176;DHT22;74306;40.114;18.304;2023-11-21T04:51:49;13.00;93.70
84176;DHT22;74306;40.114;18.304;2023-11-21T04:54:19;13.00;93.70
84176;DHT22;74306;40.114;18.304;2023-11-21T04:56:50;13.00;93.70
84176;DHT22;74306;40.114;18.304;2023-11-21T04:59:19;13.00;93.70
84176;DHT22;74306;40.114;18.304;2023-11-21T05:01:53;13.10;93.70
84176;DHT22;74306;40.114;18.304;2023-11-21T05:04:23;13.00;93.60
84176;DHT22;74306;40.114;18.304;2023-11-21T05:06:52;13.00;93.60
84176;DHT22;74306;40.114;18.304;2023-11-21T05:09:22;12.90;93.60
84176;DHT22;74306;40.114;18.304;2023-11-21T05:11:51;13.00;93.60
84176;DHT22;74306;40.114;18.304;2023-11-21T05:14:21;13.00;93.60
84176;DHT22;74306;40.114;18.304;2023-11-21T05:16:50;13.00;93.60
84176;DHT22;74306;40.114;18.304;2023-11-21T05:19:24;13.00;93.70
84176;DHT22;74306;40.114;18.304;2023-11-21T05:21:55;13.00;93.70
84176;DHT22;74306;40.114;18.304;2023-11-21T05:24:25;13.00;93.70
84176;DHT22;74306;40.114;18.304;2023-11-21T05:26:54;13.00;93.60
84176;DHT22;74306;40.114;18.304;2023-11-21T05:29:23;13.00;93.70
84176;DHT22;74306;40.114;18.304;2023-11-21T05:31:53;13.00;93.70
84176;DHT22;74306;40.114;18.304;2023-11-21T05:34:24;13.00;93.70
84176;DHT22;74306;40.114;18.304;2023-11-21T05:36:54;13.00;93.70
84176;DHT22;74306;40.114;18.304;2023-11-21T05:39:25;13.00;93.70
84176;DHT22;74306;40.114;18.304;2023-11-21T05:41:55;13.00;93.80
84176;DHT22;74306;40.114;18.304;2023-11-21T05:44:25;13.10;93.80
84176;DHT22;74306;40.114;18.304;2023-11-21T05:46:54;13.10;93.80
84176;DHT22;74306;40.114;18.304;2023-11-21T05:49:27;13.20;93.90
84176;DHT22;74306;40.114;18.304;2023-11-21T05:51:57;13.30;94.00
84176;DHT22;74306;40.114;18.304;2023-11-21T05:54:28;13.40;94.10
84176;DHT22;74306;40.114;18.304;2023-11-21T05:56:57;13.50;94.00
84176;DHT22;74306;40.114;18.304;2023-11-21T05:59:26;13.60;93.90
84176;DHT22;74306;40.114;18.304;2023-11-21T06:01:55;13.60;93.80
84176;DHT22;74306;40.114;18.304;2023-11-21T06:04:26;13.60;93.80
84176;DHT22;74306;40.114;18.304;2023-11-21T06:06:56;13.60;93.80
84176;DHT22;74306;40.114;18.304;2023-11-21T06:09:25;13.60;93.80
84176;DHT22;74306;40.114;18.304;2023-11-21T06:11:55;13.60;93.80
84176;DHT22;74306;40.114;18.304;2023-11-21T06:14:24;13.60;93.70
84176;DHT22;74306;40.114;18.304;2023-11-21T06:16:54;13.70;93.70
84176;DHT22;74306;40.114;18.304;2023-11-21T06:19:24;13.70;93.80
84176;DHT22;74306;40.114;18.304;2023-11-21T06:21:55;13.60;93.70
84176;DHT22;74306;40.114;18.304;2023-11-21T06:24:24;13.70;93.70
84176;DHT22;74306;40.114;18.304;2023-11-21T06:26:53;13.60;93.70
84176;DHT22;74306;40.114;18.304;2023-11-21T06:29:23;13.70;93.80
84176;DHT22;74306;40.114;18.304;2023-11-21T06:31:52;13.70;93.80
84176;DHT22;74306;40.114;18.304;2023-11-21T06:34:22;13.80;94.00
84176;DHT22;74306;40.114;18.304;2023-11-21T06:36:52;13.80;94.00
84176;DHT22;74306;40.114;18.304;2023-11-21T06:39:22;13.90;94.00
84176;DHT22;74306;40.114;18.304;2023-11-21T06:41:52;14.00;94.00
84176;DHT22;74306;40.114;18.304;2023-11-21T06:44:22;14.10;94.10
84176;DHT22;74306;40.114;18.304;2023-11-21T06:46:51;14.20;94.10
84176;DHT22;74306;40.114;18.304;2023-11-21T06:49:21;14.30;94.10
84176;DHT22;74306;40.114;18.304;2023-11-21T06:51:51;14.40;94.00
84176;DHT22;74306;40.114;18.304;2023-11-21T06:54:22;14.50;94.10
84176;DHT22;74306;40.114;18.304;2023-11-21T06:56:52;14.60;94.20
84176;DHT22;74306;40.114;18.304;2023-11-21T06:59:22;14.80;94.20
84176;DHT22;74306;40.114;18.304;2023-11-21T07:01:51;14.90;94.10
84176;DHT22;74306;40.114;18.304;2023-11-21T07:04:21;15.10;94.00
84176;DHT22;74306;40.114;18.304;2023-11-21T07:06:50;15.20;93.90
84176;DHT22;74306;40.114;18.304;2023-11-21T07:09:19;15.30;94.00
84176;DHT22;74306;40.114;18.304;2023-11-21T07:11:51;15.40;93.80
84176;DHT22;74306;40.114;18.304;2023-11-21T07:14:20;15.50;93.60
84176;DHT22;74306;40.114;18.304;2023-11-21T07:16:50;15.50;93.50
84176;DHT22;74306;40.114;18.304;2023-11-21T07:19:20;15.50;93.40
84176;DHT22;74306;40.114;18.304;2023-11-21T07:21:50;15.50;93.20
84176;DHT22;74306;40.114;18.304;2023-11-21T07:24:20;15.50;93.20
84176;DHT22;74306;40.114;18.304;2023-11-21T07:26:53;15.60;93.30
84176;DHT22;74306;40.114;18.304;2023-11-21T07:29:24;15.60;93.20
84176;DHT22;74306;40.114;18.304;2023-11-21T07:31:54;15.70;93.30
84176;DHT22;74306;40.114;18.304;2023-11-21T07:34:23;15.70;93.30
84176;DHT22;74306;40.114;18.304;2023-11-21T07:36:52;15.70;93.10
84176;DHT22;74306;40.114;18.304;2023-11-21T07:39:22;15.80;93.10
84176;DHT22;74306;40.114;18.304;2023-11-21T07:41:53;15.80;93.10
84176;DHT22;74306;40.114;18.304;2023-11-21T07:44:22;15.90;93.10
84176;DHT22;74306;40.114;18.304;2023-11-21T07:46:51;15.90;93.00
84176;DHT22;74306;40.114;18.304;2023-11-21T07:49:25;16.00;93.00
84176;DHT22;74306;40.114;18.304;2023-11-21T07:51:54;16.10;92.80
84176;DHT22;74306;40.114;18.304;2023-11-21T07:54:23;16.20;92.70
84176;DHT22;74306;40.114;18.304;2023-11-21T07:56:54;16.30;92.80
84176;DHT22;74306;40.114;18.304;2023-11-21T07:59:24;16.30;92.50
84176;DHT22;74306;40.114;18.304;2023-11-21T08:01:54;16.40;92.30
84176;DHT22;74306;40.114;18.304;2023-11-21T08:04:23;16.50;91.80
84176;DHT22;74306;40.114;18.304;2023-11-21T08:06:52;16.60;91.60
84176;DHT22;74306;40.114;18.304;2023-11-21T08:09:22;16.80;91.50
84176;DHT22;74306;40.114;18.304;2023-11-21T08:11:51;16.80;91.00
84176;DHT22;74306;40.114;18.304;2023-11-21T08:14:22;16.80;90.90
84176;DHT22;74306;40.114;18.304;2023-11-21T08:16:53;16.80;90.80
84176;DHT22;74306;40.114;18.304;2023-11-21T08:19:25;16.80;91.30
84176;DHT22;74306;40.114;18.304;2023-11-21T08:21:55;17.00;91.00
84176;DHT22;74306;40.114;18.304;2023-11-21T08:24:25;17.20;90.50
84176;DHT22;74306;40.114;18.304;2023-11-21T08:26:55;17.50;90.40
84176;DHT22;74306;40.114;18.304;2023-11-21T08:29:27;17.70;89.40
84176;DHT22;74306;40.114;18.304;2023-11-21T08:31:57;17.80;89.30
84176;DHT22;74306;40.114;18.304;2023-11-21T08:34:27;17.90;88.80
84176;DHT22;74306;40.114;18.304;2023-11-21T08:36:57;18.00;88.10
84176;DHT22;74306;40.114;18.304;2023-11-21T08:39:26;18.10;88.10
84176;DHT22;74306;40.114;18.304;2023-11-21T08:41:56;18.10;87.60
84176;DHT22;74306;40.114;18.304;2023-11-21T08:44:27;18.10;87.60
84176;DHT22;74306;40.114;18.304;2023-11-21T08:46:56;18.10;88.00
84176;DHT22;74306;40.114;18.304;2023-11-21T08:49:25;18.10;87.40
84176;DHT22;74306;40.114;18.304;2023-11-21T08:51:55;18.10;86.90
84176;DHT22;74306;40.114;18.304;2023-11-21T08:54:27;18.20;87.20
84176;DHT22;74306;40.114;18.304;2023-11-21T08:56:56;18.30;86.40
84176;DHT22;74306;40.114;18.304;2023-11-21T08:59:27;18.20;86.50
84176;DHT22;74306;40.114;18.304;2023-11-21T09:01:56;18.20;87.10
84176;DHT22;74306;40.114;18.304;2023-11-21T09:04:25;18.30;86.00
84176;DHT22;74306;40.114;18.304;2023-11-21T09:06:55;18.30;86.00
84176;DHT22;74306;40.114;18.304;2023-11-21T09:09:24;18.50;85.40
84176;DHT22;74306;40.114;18.304;2023-11-21T09:11:53;18.50;84.30
84176;DHT22;74306;40.114;18.304;2023-11-21T09:14:23;18.60;83.60
84176;DHT22;74306;40.114;18.304;2023-11-21T09:16:53;18.60;83.80
84176;DHT22;74306;40.114;18.304;2023-11-21T09:19:25;18.80;83.40
84176;DHT22;74306;40.114;18.304;2023-11-21T09:21:54;19.00;83.10
84176;DHT22;74306;40.114;18.304;2023-11-21T09:24:26;19.30;81.80
84176;DHT22;74306;40.114;18.304;2023-11-21T09:26:55;19.50;80.90
84176;DHT22;74306;40.114;18.304;2023-11-21T09:29:24;19.40;80.10
84176;DHT22;74306;40.114;18.304;2023-11-21T09:31:55;19.40;79.70
84176;DHT22;74306;40.114;18.304;2023-11-21T09:34:27;19.40;80.00
84176;DHT22;74306;40.114;18.304;2023-11-21T09:36:56;19.50;79.70
84176;DHT22;74306;40.114;18.304;2023-11-21T09:39:25;19.60;79.90
84176;DHT22;74306;40.114;18.304;2023-11-21T09:41:59;19.80;79.30
84176;DHT22;74306;40.114;18.304;2023-11-21T09:44:35;19.90;77.60
84176;DHT22;74306;40.114;18.304;2023-11-21T09:47:07;19.80;77.40
84176;DHT22;74306;40.114;18.304;2023-11-21T09:49:38;19.80;77.40
84176;DHT22;74306;40.114;18.304;2023-11-21T09:52:09;19.80;77.10
84176;DHT22;74306;40.114;18.304;2023-11-21T09:54:43;20.00;76.70
84176;DHT22;74306;40.114;18.304;2023-11-21T09:57:13;20.20;75.90
84176;DHT22;74306;40.114;18.304;2023-11-21T09:59:45;20.40;75.10
84176;DHT22;74306;40.114;18.304;2023-11-21T10:02:17;20.30;75.80
84176;DHT22;74306;40.114;18.304;2023-11-21T10:04:48;20.10;76.50
84176;DHT22;74306;40.114;18.304;2023-11-21T10:07:19;20.00;76.90
84176;DHT22;74306;40.114;18.304;2023-11-21T10:09:51;19.80;77.40
84176;DHT22;74306;40.114;18.304;2023-11-21T10:12:23;19.80;78.00
84176;DHT22;74306;40.114;18.304;2023-11-21T10:14:54;19.90;77.60
84176;DHT22;74306;40.114;18.304;2023-11-21T10:17:31;20.00;76.80
84176;DHT22;74306;40.114;18.304;2023-11-21T10:20:11;19.90;76.80
84176;DHT22;74306;40.114;18.304;2023-11-21T10:22:42;19.90;77.10
84176;DHT22;74306;40.114;18.304;2023-11-21T10:25:12;19.90;77.40
84176;DHT22;74306;40.114;18.304;2023-11-21T10:27:42;19.80;77.80
84176;DHT22;74306;40.114;18.304;2023-11-21T10:30:12;19.80;77.90
84176;DHT22;74306;40.114;18.304;2023-11-21T10:32:45;20.00;78.10
84176;DHT22;74306;40.114;18.304;2023-11-21T10:35:14;20.30;77.50
84176;DHT22;74306;40.114;18.304;2023-11-21T10:37:43;20.40;76.80
84176;DHT22;74306;40.114;18.304;2023-11-21T10:40:13;20.50;76.50
84176;DHT22;74306;40.114;18.304;2023-11-21T10:42:42;20.70;75.50
84176;DHT22;74306;40.114;18.304;2023-11-21T10:45:11;20.70;75.40
84176;DHT22;74306;40.114;18.304;2023-11-21T10:47:45;20.40;76.20
84176;DHT22;74306;40.114;18.304;2023-11-21T10:50:14;20.30;76.90
84176;DHT22;74306;40.114;18.304;2023-11-21T10:52:48;20.10;77.30
84176;DHT22;74306;40.114;18.304;2023-11-21T10:55:17;20.20;78.00
84176;DHT22;74306;40.114;18.304;2023-11-21T10:57:52;20.20;77.70
84176;DHT22;74306;40.114;18.304;2023-11-21T11:00:22;20.20;78.10
84176;DHT22;74306;40.114;18.304;2023-11-21T11:02:54;20.10;78.30
84176;DHT22;74306;40.114;18.304;2023-11-21T11:05:24;20.10;79.00
84176;DHT22;74306;40.114;18.304;2023-11-21T11:07:58;20.10;79.60
84176;DHT22;74306;40.114;18.304;2023-11-21T11:10:31;20.10;79.60
84176;DHT22;74306;40.114;18.304;2023-11-21T11:13:01;20.60;78.20
84176;DHT22;74306;40.114;18.304;2023-11-21T11:15:30;20.80;77.30
84176;DHT22;74306;40.114;18.304;2023-11-21T11:18:03;20.70;77.20
84176;DHT22;74306;40.114;18.304;2023-11-21T11:20:35;20.90;76.40
84176;DHT22;74306;40.114;18.304;2023-11-21T11:23:19;21.20;75.50
84176;DHT22;74306;40.114;18.304;2023-11-21T11:26:06;21.30;74.80
84176;DHT22;74306;40.114;18.304;2023-11-21T11:28:44;21.10;74.70
84176;DHT22;74306;40.114;18.304;2023-11-21T11:31:26;21.00;75.10
84176;DHT22;74306;40.114;18.304;2023-11-21T11:34:01;20.90;75.80
84176;DHT22;74306;40.114;18.304;2023-11-21T11:36:39;20.70;76.40
84176;DHT22;74306;40.114;18.304;2023-11-21T11:39:29;20.80;76.30
84176;DHT22;74306;40.114;18.304;2023-11-21T11:42:02;20.70;76.30
84176;DHT22;74306;40.114;18.304;2023-11-21T11:44:49;20.60;76.20
84176;DHT22;74306;40.114;18.304;2023-11-21T11:47:24;20.50;77.60
84176;DHT22;74306;40.114;18.304;2023-11-21T11:50:05;20.40;77.90
84176;DHT22;74306;40.114;18.304;2023-11-21T11:52:42;20.30;78.60
84176;DHT22;74306;40.114;18.304;2023-11-21T11:55:13;20.10;79.00
84176;DHT22;74306;40.114;18.304;2023-11-21T11:57:46;20.00;79.20
84176;DHT22;74306;40.114;18.304;2023-11-21T12:00:20;20.00;79.70
84176;DHT22;74306;40.114;18.304;2023-11-21T12:02:53;20.20;79.50
84176;DHT22;74306;40.114;18.304;2023-11-21T12:05:27;20.20;79.50
84176;DHT22;74306;40.114;18.304;2023-11-21T12:07:57;20.30;79.10
84176;DHT22;74306;40.114;18.304;2023-11-21T12:10:28;20.30;79.30
84176;DHT22;74306;40.114;18.304;2023-11-21T12:12:59;20.30;79.80
84176;DHT22;74306;40.114;18.304;2023-11-21T12:15:30;20.30;79.70
84176;DHT22;74306;40.114;18.304;2023-11-21T12:17:59;20.30;79.80
84176;DHT22;74306;40.114;18.304;2023-11-21T12:20:31;20.30;79.60
84176;DHT22;74306;40.114;18.304;2023-11-21T12:23:06;20.20;79.90
84176;DHT22;74306;40.114;18.304;2023-11-21T12:25:37;20.20;80.00
84176;DHT22;74306;40.114;18.304;2023-11-21T12:28:08;20.30;80.20
84176;DHT22;74306;40.114;18.304;2023-11-21T12:30:37;20.30;80.30
84176;DHT22;74306;40.114;18.304;2023-11-21T12:33:07;20.20;80.30
84176;DHT22;74306;40.114;18.304;2023-11-21T12:35:39;20.20;80.20
84176;DHT22;74306;40.114;18.304;2023-11-21T12:38:08;20.00;80.90
84176;DHT22;74306;40.114;18.304;2023-11-21T12:40:37;20.10;81.00
84176;DHT22;74306;40.114;18.304;2023-11-21T12:43:07;20.00;81.00
84176;DHT22;74306;40.114;18.304;2023-11-21T12:45:37;20.00;81.20
84176;DHT22;74306;40.114;18.304;2023-11-21T12:48:06;20.00;81.00
84176;DHT22;74306;40.114;18.304;2023-11-21T12:50:38;20.10;81.00
84176;DHT22;74306;40.114;18.304;2023-11-21T12:53:08;20.20;80.60
84176;DHT22;74306;40.114;18.304;2023-11-21T12:55:39;20.50;79.70
84176;DHT22;74306;40.114;18.304;2023-11-21T12:58:10;20.70;79.00
84176;DHT22;74306;40.114;18.304;2023-11-21T13:00:44;20.50;79.20
84176;DHT22;74306;40.114;18.304;2023-11-21T13:03:15;20.40;80.00
84176;DHT22;74306;40.114;18.304;2023-11-21T13:05:48;20.30;80.40
84176;DHT22;74306;40.114;18.304;2023-11-21T13:08:19;20.30;80.70
84176;DHT22;74306;40.114;18.304;2023-11-21T13:10:52;20.30;81.00
84176;DHT22;74306;40.114;18.304;2023-11-21T13:13:23;20.20;80.90
84176;DHT22;74306;40.114;18.304;2023-11-21T13:15:55;20.10;81.00
84176;DHT22;74306;40.114;18.304;2023-11-21T13:18:25;20.00;81.30
84176;DHT22;74306;40.114;18.304;2023-11-21T13:20:57;20.10;81.60
84176;DHT22;74306;40.114;18.304;2023-11-21T13:23:27;20.20;81.80
84176;DHT22;74306;40.114;18.304;2023-11-21T13:25:57;20.30;80.90
84176;DHT22;74306;40.114;18.304;2023-11-21T13:28:32;20.40;81.00
84176;DHT22;74306;40.114;18.304;2023-11-21T13:31:03;20.30;81.10
84176;DHT22;74306;40.114;18.304;2023-11-21T13:33:38;20.20;81.70
84176;DHT22;74306;40.114;18.304;2023-11-21T13:36:10;20.10;82.20
84176;DHT22;74306;40.114;18.304;2023-11-21T13:38:42;20.00;82.80
84176;DHT22;74306;40.114;18.304;2023-11-21T13:41:12;19.80;83.00
84176;DHT22;74306;40.114;18.304;2023-11-21T13:43:42;19.80;83.20
84176;DHT22;74306;40.114;18.304;2023-11-21T13:46:18;19.80;83.40
84176;DHT22;74306;40.114;18.304;2023-11-21T13:48:51;19.80;83.70
84176;DHT22;74306;40.114;18.304;2023-11-21T13:51:26;19.70;84.00
84176;DHT22;74306;40.114;18.304;2023-11-21T13:54:05;19.70;84.00
84176;DHT22;74306;40.114;18.304;2023-11-21T13:56:37;19.60;83.90
84176;DHT22;74306;40.114;18.304;2023-11-21T13:59:11;19.50;84.20
84176;DHT22;74306;40.114;18.304;2023-11-21T14:01:48;19.40;84.50
84176;DHT22;74306;40.114;18.304;2023-11-21T14:04:26;19.30;84.70
84176;DHT22;74306;40.114;18.304;2023-11-21T14:07:20;19.30;85.10
84176;DHT22;74306;40.114;18.304;2023-11-21T14:09:58;19.30;85.00
84176;DHT22;74306;40.114;18.304;2023-11-21T14:12:28;19.30;84.80
84176;DHT22;74306;40.114;18.304;2023-11-21T14:15:03;19.30;84.30
84176;DHT22;74306;40.114;18.304;2023-11-21T14:17:37;19.20;84.50
84176;DHT22;74306;40.114;18.304;2023-11-21T14:20:09;19.10;84.10
84176;DHT22;74306;40.114;18.304;2023-11-21T14:22:45;19.10;83.20
84176;DHT22;74306;40.114;18.304;2023-11-21T14:25:15;19.10;82.30
84176;DHT22;74306;40.114;18.304;2023-11-21T14:27:46;19.10;82.00
84176;DHT22;74306;40.114;18.304;2023-11-21T14:30:15;18.90;82.50
84176;DHT22;74306;40.114;18.304;2023-11-21T14:32:47;18.80;82.70
84176;DHT22;74306;40.114;18.304;2023-11-21T14:35:16;18.80;83.00
84176;DHT22;74306;40.114;18.304;2023-11-21T14:37:47;18.80;83.10
84176;DHT22;74306;40.114;18.304;2023-11-21T14:40:17;18.80;83.30
84176;DHT22;74306;40.114;18.304;2023-11-21T14:42:50;18.70;83.00
84176;DHT22;74306;40.114;18.304;2023-11-21T14:45:22;18.60;83.00
84176;DHT22;74306;40.114;18.304;2023-11-21T14:47:54;18.60;82.70
84176;DHT22;74306;40.114;18.304;2023-11-21T14:50:34;18.50;83.00
84176;DHT22;74306;40.114;18.304;2023-11-21T14:53:38;18.50;82.80
84176;DHT22;74306;40.114;18.304;2023-11-21T14:56:21;18.30;82.90
84176;DHT22;74306;40.114;18.304;2023-11-21T14:58:55;18.30;83.60
84176;DHT22;74306;40.114;18.304;2023-11-21T15:01:24;18.30;83.70
84176;DHT22;74306;40.114;18.304;2023-11-21T15:04:11;18.20;84.00
84176;DHT22;74306;40.114;18.304;2023-11-21T15:06:48;18.20;84.20
84176;DHT22;74306;40.114;18.304;2023-11-21T15:09:21;18.20;84.40
84176;DHT22;74306;40.114;18.304;2023-11-21T15:12:10;18.20;84.50
84176;DHT22;74306;40.114;18.304;2023-11-21T15:14:44;18.10;84.60
84176;DHT22;74306;40.114;18.304;2023-11-21T15:17:14;18.00;84.90
84176;DHT22;74306;40.114;18.304;2023-11-21T15:19:50;17.90;85.10
84176;DHT22;74306;40.114;18.304;2023-11-21T15:22:20;18.00;84.90
84176;DHT22;74306;40.114;18.304;2023-11-21T15:24:51;17.90;85.00
84176;DHT22;74306;40.114;18.304;2023-11-21T15:27:21;17.90;85.10
84176;DHT22;74306;40.114;18.304;2023-11-21T15:29:52;17.80;85.30
84176;DHT22;74306;40.114;18.304;2023-11-21T15:32:21;17.80;85.50
84176;DHT22;74306;40.114;18.304;2023-11-21T15:34:50;17.80;85.40
84176;DHT22;74306;40.114;18.304;2023-11-21T15:37:20;17.80;85.60
84176;DHT22;74306;40.114;18.304;2023-11-21T15:39:51;17.80;85.70